Flight Track Log - Related Links

Times and Time Zones

All times are in EDT time to prevent confusion due to time zone crossing. See the PDT4162 flight status page for this flight to view local times or setup timezone preferences in your user account.

Time Position Orientation Groundspeed Altitude Reporting Facility
EDT Latitude Longitude Course Direction KTS MPH feet Rate Location/Type
Thu 11:16:29 AM 39.2167 -76.6667 43° Northeast 161 185 2,500  Level Potomac TRACON
Thu 11:17:29 AM 39.2167 -76.6000 90° East 178 205 3,600 1,041 Climbing Potomac TRACON
Thu 11:18:30 AM 39.2167 -76.5500 90° East 191 220 4,600 694 Climbing Potomac TRACON
Thu 11:19:30 AM 39.2167 -76.4667 90° East 220 253 5,000 200 Climbing Potomac TRACON
Thu 11:20:30 AM 39.2167 -76.3833 90° East 242 278 5,000  Level Potomac TRACON
Thu 11:21:00 AM 39.3354 -75.9910 43° Northeast  Level FlightAware Approximate
Thu 11:21:30 AM 39.2333 -76.3000 75° East 246 283 5,000  Level Potomac TRACON
Thu 11:23:30 AM 39.2833 -76.1333 69° East 248 285 5,000  Level Philadelphia TRACON
Thu 11:24:37 AM 39.3500 -76.0667 38° Northeast 249 287 5,000  Level Philadelphia TRACON
Thu 11:25:43 AM 39.4000 -76.0167 38° Northeast 250 288 5,000  Level Philadelphia TRACON
Thu 11:26:37 AM 39.4333 -75.9500 57° Northeast 249 287 5,000  Level Philadelphia TRACON
Thu 11:27:37 AM 39.4667 -75.8667 63° Northeast 246 283 5,000  Level Philadelphia TRACON
Thu 11:28:37 AM 39.4833 -75.7833 75° East 238 274 5,000  Level Philadelphia TRACON
Thu 11:29:37 AM 39.4833 -75.7000 90° East 242 278 5,000  Level Philadelphia TRACON
Thu 11:30:37 AM 39.4833 -75.6000 90° East 244 281 5,000  Level Philadelphia TRACON
Thu 11:31:37 AM 39.5000 -75.5167 75° East 244 281 5,000  Level Philadelphia TRACON
Thu 11:32:37 AM 39.5000 -75.4333 90° East 247 284 5,000  Level Philadelphia TRACON
Thu 11:33:37 AM 39.5000 -75.3500 90° East 245 282 5,000 -200 Level Philadelphia TRACON
Thu 11:34:37 AM 39.5167 -75.2667 75° East 266 306 4,600 -500 Descending Philadelphia TRACON
Thu 11:35:37 AM 39.5833 -75.2167 30° Northeast 280 322 4,000 -694 Descending Philadelphia TRACON
Thu 11:36:38 AM 39.6667 -75.1667 25° Northeast 273 314 3,200 -787 Descending Philadelphia TRACON

Login

Don't have an account? Register now (free) for customized features, flight alerts, and more!